createdAt,value
2018-10-07T00:00:00.951Z,1000.37
2018-10-07T00:01:00.948Z,1000.38
2018-10-07T00:02:00.948Z,1000.44
2018-10-07T00:03:00.946Z,1000.51
2018-10-07T00:04:00.946Z,1000.52
2018-10-07T00:05:00.941Z,1000.52
2018-10-07T00:06:00.940Z,1000.47
2018-10-07T00:07:00.940Z,1000.48
2018-10-07T00:08:00.938Z,1000.53
2018-10-07T00:09:00.934Z,1000.54
2018-10-07T00:10:00.934Z,1000.56
2018-10-07T00:11:00.933Z,1000.61
2018-10-07T00:12:00.929Z,1000.56
2018-10-07T00:13:00.928Z,1000.58
2018-10-07T00:14:00.925Z,1000.57
2018-10-07T00:15:00.924Z,1000.65
2018-10-07T00:16:00.922Z,1000.62
2018-10-07T00:17:00.921Z,1000.64
2018-10-07T00:18:00.918Z,1000.71
2018-10-07T00:19:00.916Z,1000.72
2018-10-07T00:20:00.918Z,1000.69
2018-10-07T00:21:00.912Z,1000.67
2018-10-07T00:22:00.912Z,1000.73
2018-10-07T00:23:00.909Z,1000.75
2018-10-07T00:24:00.908Z,1000.66
2018-10-07T00:25:00.905Z,1000.70
2018-10-07T00:26:00.902Z,1000.76
2018-10-07T00:27:00.903Z,1000.72
2018-10-07T00:28:00.900Z,1000.78
2018-10-07T00:29:00.900Z,1000.80
2018-10-07T00:30:00.897Z,1000.83
2018-10-07T00:31:00.894Z,1000.82
2018-10-07T00:32:00.892Z,1000.84
2018-10-07T00:33:00.890Z,1000.85
2018-10-07T00:34:00.889Z,1000.85
2018-10-07T00:35:00.887Z,1000.85
2018-10-07T00:36:00.889Z,1000.88
2018-10-07T00:37:00.882Z,1000.94
2018-10-07T00:38:00.888Z,1000.98
2018-10-07T00:39:00.879Z,1001.00
2018-10-07T00:40:00.879Z,1001.04
2018-10-07T00:41:00.875Z,1001.08
2018-10-07T00:42:00.874Z,1001.07
2018-10-07T00:43:00.872Z,1001.15
2018-10-07T00:44:00.869Z,1001.16
2018-10-07T00:45:00.868Z,1001.23
2018-10-07T00:46:00.868Z,1001.22
2018-10-07T00:47:00.865Z,1001.24
2018-10-07T00:48:00.863Z,1001.31
2018-10-07T00:49:00.864Z,1001.34
2018-10-07T00:50:00.867Z,1001.39
2018-10-07T00:51:00.858Z,1001.37
2018-10-07T00:52:00.857Z,1001.43
2018-10-07T00:53:00.855Z,1001.44
2018-10-07T00:54:00.852Z,1001.46
2018-10-07T00:55:00.852Z,1001.42
2018-10-07T00:56:00.850Z,1001.47
2018-10-07T00:57:00.848Z,1001.54
2018-10-07T00:58:00.850Z,1001.46
2018-10-07T00:59:00.844Z,1001.55
2018-10-07T01:00:00.844Z,1001.54
2018-10-07T01:01:00.841Z,1001.56
2018-10-07T01:02:00.840Z,1001.61
2018-10-07T01:03:00.840Z,1001.61
2018-10-07T01:04:00.835Z,1001.64
2018-10-07T01:05:00.832Z,1001.63
2018-10-07T01:06:00.830Z,1001.65
2018-10-07T01:07:00.830Z,1001.64
2018-10-07T01:08:00.827Z,1001.65
2018-10-07T01:09:00.824Z,1001.71
2018-10-07T01:10:00.823Z,1001.73
2018-10-07T01:11:00.822Z,1001.70
2018-10-07T01:12:00.820Z,1001.71
2018-10-07T01:13:00.818Z,1001.71
2018-10-07T01:14:00.817Z,1001.75
2018-10-07T01:15:00.815Z,1001.78
2018-10-07T01:16:00.816Z,1001.71
2018-10-07T01:17:00.811Z,1001.77
2018-10-07T01:18:00.810Z,1001.75
2018-10-07T01:19:00.807Z,1001.74
2018-10-07T01:20:00.806Z,1001.78
2018-10-07T01:21:00.803Z,1001.77
2018-10-07T01:22:00.800Z,1001.81
2018-10-07T01:23:00.798Z,1001.80
2018-10-07T01:24:00.798Z,1001.79
2018-10-07T01:25:00.795Z,1001.90
2018-10-07T01:26:00.795Z,1001.84
2018-10-07T01:27:00.791Z,1001.92
2018-10-07T01:28:00.790Z,1001.97
2018-10-07T01:29:00.786Z,1001.94
2018-10-07T01:30:00.785Z,1001.99
2018-10-07T01:31:00.784Z,1002.01
2018-10-07T01:32:00.781Z,1001.94
2018-10-07T01:33:00.778Z,1002.07
2018-10-07T01:34:00.778Z,1002.03
2018-10-07T01:35:00.775Z,1002.04
2018-10-07T01:36:00.773Z,1002.13
2018-10-07T01:37:00.770Z,1002.13
2018-10-07T01:38:00.770Z,1002.19
2018-10-07T01:39:00.769Z,1002.24
2018-10-07T01:40:00.764Z,1002.30
2018-10-07T01:41:00.764Z,1002.19
2018-10-07T01:42:00.761Z,1002.27
2018-10-07T01:43:00.759Z,1002.23
2018-10-07T01:44:00.757Z,1002.21
2018-10-07T01:45:00.756Z,1002.16
2018-10-07T01:46:00.757Z,1002.18
2018-10-07T01:47:00.752Z,1002.19
2018-10-07T01:48:00.773Z,1002.21
2018-10-07T01:49:00.748Z,1002.24
2018-10-07T01:50:00.745Z,1002.30
2018-10-07T01:51:00.742Z,1002.34
2018-10-07T01:52:00.741Z,1002.37
2018-10-07T01:53:00.737Z,1002.42
2018-10-07T01:54:00.735Z,1002.41
2018-10-07T01:55:00.734Z,1002.45
2018-10-07T01:56:00.733Z,1002.48
2018-10-07T01:57:00.729Z,1002.46
2018-10-07T01:58:00.727Z,1002.61
2018-10-07T01:59:00.724Z,1002.66
2018-10-07T02:00:00.724Z,1002.63
2018-10-07T02:01:00.721Z,1002.66
2018-10-07T02:02:00.718Z,1002.70
2018-10-07T02:03:00.716Z,1002.76
2018-10-07T02:04:00.715Z,1002.77
2018-10-07T02:05:00.769Z,1002.77
2018-10-07T02:06:00.709Z,1002.82
2018-10-07T02:07:00.708Z,1002.77
2018-10-07T02:08:00.706Z,1002.81
2018-10-07T02:09:00.702Z,1002.86
2018-10-07T02:10:00.700Z,1002.90
2018-10-07T02:11:00.698Z,1002.91
2018-10-07T02:12:00.695Z,1002.82
2018-10-07T02:13:00.693Z,1002.94
2018-10-07T02:14:00.705Z,1002.78
2018-10-07T02:15:00.692Z,1002.76
2018-10-07T02:16:00.687Z,1002.79
2018-10-07T02:17:00.683Z,1002.85
2018-10-07T02:18:00.681Z,1002.94
2018-10-07T02:19:00.681Z,1002.97
2018-10-07T02:20:00.677Z,1002.93
2018-10-07T02:21:00.674Z,1002.94
2018-10-07T02:22:00.671Z,1002.88
2018-10-07T02:23:00.669Z,1002.85
2018-10-07T02:24:00.668Z,1002.84
2018-10-07T02:25:00.665Z,1002.84
2018-10-07T02:26:00.661Z,1002.87
2018-10-07T02:27:00.659Z,1002.94
2018-10-07T02:28:00.659Z,1002.93
2018-10-07T02:29:00.653Z,1002.96
2018-10-07T02:30:00.652Z,1003.00
2018-10-07T02:31:00.649Z,1003.00
2018-10-07T02:32:00.648Z,1003.03
2018-10-07T02:33:00.644Z,1003.09
2018-10-07T02:34:00.641Z,1003.06
2018-10-07T02:35:00.640Z,1003.11
2018-10-07T02:36:00.636Z,1003.07
2018-10-07T02:37:00.634Z,1003.07
2018-10-07T02:38:00.631Z,1003.12
2018-10-07T02:39:00.630Z,1003.18
2018-10-07T02:40:00.627Z,1003.19
2018-10-07T02:41:00.623Z,1003.29
2018-10-07T02:42:00.621Z,1003.29
2018-10-07T02:43:00.621Z,1003.41
2018-10-07T02:44:00.615Z,1003.42
2018-10-07T02:45:00.611Z,1003.44
2018-10-07T02:46:00.609Z,1003.44
2018-10-07T02:47:00.609Z,1003.45
2018-10-07T02:48:00.604Z,1003.47
2018-10-07T02:49:00.601Z,1003.51
2018-10-07T02:50:00.597Z,1003.53
2018-10-07T02:51:00.594Z,1003.55
2018-10-07T02:52:00.593Z,1003.61
2018-10-07T02:53:00.591Z,1003.55
2018-10-07T02:54:00.585Z,1003.57
2018-10-07T02:55:00.584Z,1003.58
2018-10-07T02:56:00.580Z,1003.37
2018-10-07T02:57:00.577Z,1003.55
2018-10-07T02:58:00.575Z,1003.52
2018-10-07T02:59:00.571Z,1003.54
2018-10-07T03:00:00.569Z,1003.55
2018-10-07T03:01:00.565Z,1003.55
2018-10-07T03:02:00.563Z,1003.52
2018-10-07T03:03:00.560Z,1003.55
2018-10-07T03:04:00.556Z,1003.53
2018-10-07T03:05:00.552Z,1003.53
2018-10-07T03:06:00.554Z,1003.59
2018-10-07T03:07:00.548Z,1003.64
2018-10-07T03:08:00.545Z,1003.70
2018-10-07T03:09:00.539Z,1003.69
2018-10-07T03:10:00.540Z,1003.76
2018-10-07T03:11:00.536Z,1003.76
2018-10-07T03:12:00.532Z,1003.79
2018-10-07T03:13:00.530Z,1003.81
2018-10-07T03:14:00.525Z,1003.90
2018-10-07T03:15:00.522Z,1003.94
2018-10-07T03:16:00.522Z,1004.02
2018-10-07T03:17:00.516Z,1004.03
2018-10-07T03:18:00.515Z,1004.02
2018-10-07T03:19:00.510Z,1004.05
2018-10-07T03:20:00.511Z,1004.05
2018-10-07T03:21:00.501Z,1004.07
2018-10-07T03:22:00.499Z,1004.10
2018-10-07T03:23:00.504Z,1004.06
2018-10-07T03:24:00.491Z,1004.07
2018-10-07T03:25:00.489Z,1004.10
2018-10-07T03:26:00.485Z,1004.12
2018-10-07T03:27:00.482Z,1004.17
2018-10-07T03:28:00.480Z,1004.16
2018-10-07T03:29:00.475Z,1004.23
2018-10-07T03:30:00.474Z,1004.22
2018-10-07T03:31:00.470Z,1004.20
2018-10-07T03:32:00.467Z,1004.28
2018-10-07T03:33:00.462Z,1004.22
2018-10-07T03:34:00.460Z,1004.28
2018-10-07T03:35:00.456Z,1004.28
2018-10-07T03:36:00.453Z,1004.30
2018-10-07T03:37:00.449Z,1004.28
2018-10-07T03:38:00.445Z,1004.30
2018-10-07T03:39:00.443Z,1004.38
2018-10-07T03:40:00.440Z,1004.33
2018-10-07T03:41:00.437Z,1004.31
2018-10-07T03:42:00.431Z,1004.33
2018-10-07T03:43:00.429Z,1004.29
2018-10-07T03:44:00.426Z,1004.36
2018-10-07T03:45:00.421Z,1004.40
2018-10-07T03:46:00.417Z,1004.35
2018-10-07T03:47:00.415Z,1004.37
2018-10-07T03:48:00.412Z,1004.45
2018-10-07T03:49:00.408Z,1004.48
2018-10-07T03:50:00.407Z,1004.48
2018-10-07T03:51:00.402Z,1004.50
2018-10-07T03:52:00.402Z,1004.55
2018-10-07T03:53:00.394Z,1004.51
2018-10-07T03:54:00.389Z,1004.55
2018-10-07T03:55:00.386Z,1004.53
2018-10-07T03:56:00.383Z,1004.49
2018-10-07T03:57:00.380Z,1004.52
2018-10-07T03:58:00.376Z,1004.50
2018-10-07T03:59:00.373Z,1004.60
2018-10-07T04:00:00.370Z,1004.62
2018-10-07T04:01:00.366Z,1004.55
2018-10-07T04:02:00.361Z,1004.59
2018-10-07T04:03:00.362Z,1004.72
2018-10-07T04:04:00.355Z,1004.74
2018-10-07T04:05:00.350Z,1004.75
2018-10-07T04:06:00.348Z,1004.70
2018-10-07T04:07:00.344Z,1004.61
2018-10-07T04:08:00.340Z,1004.69
2018-10-07T04:09:00.336Z,1004.69
2018-10-07T04:10:00.331Z,1004.72
2018-10-07T04:11:00.329Z,1004.73
2018-10-07T04:12:00.325Z,1004.74
2018-10-07T04:13:00.320Z,1004.76
2018-10-07T04:14:00.316Z,1004.75
2018-10-07T04:15:00.314Z,1004.77
2018-10-07T04:16:00.310Z,1004.83
2018-10-07T04:17:00.305Z,1004.87
2018-10-07T04:18:00.302Z,1004.88
2018-10-07T04:19:00.299Z,1004.92
2018-10-07T04:20:00.295Z,1004.93
2018-10-07T04:21:00.289Z,1004.96
2018-10-07T04:22:00.285Z,1004.95
2018-10-07T04:23:00.283Z,1004.95
2018-10-07T04:24:00.278Z,1004.98
2018-10-07T04:25:00.274Z,1004.99
2018-10-07T04:26:00.271Z,1004.95
2018-10-07T04:27:00.269Z,1004.95
2018-10-07T04:28:00.263Z,1004.95
2018-10-07T04:29:00.258Z,1004.94
2018-10-07T04:30:00.256Z,1004.89
2018-10-07T04:31:00.252Z,1004.95
2018-10-07T04:32:00.247Z,1004.91
2018-10-07T04:33:00.243Z,1004.96
2018-10-07T04:34:00.239Z,1005.00
2018-10-07T04:35:00.235Z,1004.96
2018-10-07T04:36:00.233Z,1005.01
2018-10-07T04:37:00.227Z,1005.03
2018-10-07T04:38:00.225Z,1004.98
2018-10-07T04:39:00.220Z,1005.02
2018-10-07T04:40:00.295Z,1004.97
2018-10-07T04:41:00.211Z,1005.03
2018-10-07T04:42:00.208Z,1005.03
2018-10-07T04:43:00.206Z,1005.09
2018-10-07T04:44:00.201Z,1005.14
2018-10-07T04:45:00.196Z,1005.15
2018-10-07T04:46:00.192Z,1005.16
2018-10-07T04:47:00.188Z,1005.15
2018-10-07T04:48:00.184Z,1005.08
2018-10-07T04:49:00.180Z,1005.15
2018-10-07T04:50:00.183Z,1005.08
2018-10-07T04:51:00.174Z,1005.07
2018-10-07T04:52:00.169Z,1004.99
2018-10-07T04:53:00.165Z,1004.98
2018-10-07T04:54:00.160Z,1005.00
2018-10-07T04:55:00.156Z,1005.02
2018-10-07T04:56:00.154Z,1005.05
2018-10-07T04:57:00.148Z,1005.08
2018-10-07T04:58:00.144Z,1005.11
2018-10-07T04:59:00.139Z,1005.14
2018-10-07T05:00:00.135Z,1005.16
2018-10-07T05:01:00.135Z,1005.17
2018-10-07T05:02:00.128Z,1005.24
2018-10-07T05:03:00.129Z,1005.23
2018-10-07T05:04:00.123Z,1005.23
2018-10-07T05:05:00.115Z,1005.25
2018-10-07T05:06:00.109Z,1005.28
2018-10-07T05:07:00.106Z,1005.26
2018-10-07T05:08:00.104Z,1005.35
2018-10-07T05:09:00.098Z,1005.41
2018-10-07T05:10:00.097Z,1005.46
2018-10-07T05:11:00.090Z,1005.41
2018-10-07T05:12:00.150Z,1005.49
2018-10-07T05:13:00.081Z,1005.48
2018-10-07T05:14:00.080Z,1005.53
2018-10-07T05:15:00.075Z,1005.56
2018-10-07T05:16:00.069Z,1005.59
2018-10-07T05:17:00.063Z,1005.59
2018-10-07T05:18:00.061Z,1005.60
2018-10-07T05:19:00.055Z,1005.58
2018-10-07T05:20:00.052Z,1005.63
2018-10-07T05:21:00.078Z,1005.64
2018-10-07T05:22:00.042Z,1005.70
2018-10-07T05:23:00.039Z,1005.68
2018-10-07T05:24:00.037Z,1005.66
2018-10-07T05:25:00.033Z,1005.76
2018-10-07T05:26:00.024Z,1005.78
2018-10-07T05:27:00.020Z,1005.81
2018-10-07T05:28:00.016Z,1005.78
2018-10-07T05:29:00.015Z,1005.80
2018-10-07T05:30:00.008Z,1005.85
2018-10-07T05:31:00.003Z,1005.91
2018-10-07T05:31:59.998Z,1005.93
2018-10-07T05:32:59.992Z,1005.99
2018-10-07T05:33:59.988Z,1005.95
2018-10-07T05:34:59.984Z,1006.00
2018-10-07T05:35:59.981Z,1006.00
2018-10-07T05:36:59.975Z,1006.03
2018-10-07T05:37:59.971Z,1006.05
2018-10-07T05:38:59.971Z,1006.06
2018-10-07T05:39:59.962Z,1006.10
2018-10-07T05:40:59.956Z,1006.12
2018-10-07T05:41:59.957Z,1006.14
2018-10-07T05:42:59.947Z,1006.23
2018-10-07T05:43:59.942Z,1006.25
2018-10-07T05:44:59.938Z,1006.27
2018-10-07T05:45:59.934Z,1006.31
2018-10-07T05:46:59.930Z,1006.33
2018-10-07T05:47:59.925Z,1006.33
2018-10-07T05:48:59.920Z,1006.37
2018-10-07T05:49:59.914Z,1006.40
2018-10-07T05:50:59.910Z,1006.38
2018-10-07T05:51:59.904Z,1006.39
2018-10-07T05:52:59.900Z,1006.40
2018-10-07T05:53:59.897Z,1006.45
2018-10-07T05:54:59.893Z,1006.47
2018-10-07T05:55:59.888Z,1006.51
2018-10-07T05:56:59.883Z,1006.55
2018-10-07T05:57:59.876Z,1006.65
2018-10-07T05:58:59.873Z,1006.61
2018-10-07T05:59:59.869Z,1006.66
2018-10-07T06:00:59.863Z,1006.71
2018-10-07T06:01:59.925Z,1006.65
2018-10-07T06:02:59.857Z,1006.69
2018-10-07T06:03:59.852Z,1006.70
2018-10-07T06:04:59.844Z,1006.68
2018-10-07T06:05:59.840Z,1006.70
2018-10-07T06:06:59.835Z,1006.79
2018-10-07T06:07:59.831Z,1006.79
2018-10-07T06:08:59.826Z,1006.84
2018-10-07T06:09:59.821Z,1006.91
2018-10-07T06:10:59.815Z,1006.98
2018-10-07T06:11:59.812Z,1007.02
2018-10-07T06:12:59.806Z,1006.97
2018-10-07T06:13:59.801Z,1006.99
2018-10-07T06:14:59.838Z,1007.03
2018-10-07T06:15:59.793Z,1007.00
2018-10-07T06:16:59.786Z,1007.04
2018-10-07T06:17:59.783Z,1007.04
2018-10-07T06:18:59.777Z,1007.07
2018-10-07T06:19:59.773Z,1007.04
2018-10-07T06:20:59.768Z,1007.06
2018-10-07T06:21:59.763Z,1007.10
2018-10-07T06:22:59.759Z,1007.16
2018-10-07T06:23:59.753Z,1007.12
2018-10-07T06:24:59.746Z,1007.14
2018-10-07T06:25:59.743Z,1007.17
2018-10-07T06:26:59.740Z,1007.16
2018-10-07T06:27:59.736Z,1007.15
2018-10-07T06:28:59.734Z,1007.20
2018-10-07T06:29:59.808Z,1007.18
2018-10-07T06:30:59.721Z,1007.23
2018-10-07T06:31:59.717Z,1007.25
2018-10-07T06:32:59.711Z,1007.30
2018-10-07T06:33:59.706Z,1007.30
2018-10-07T06:34:59.703Z,1007.32
2018-10-07T06:35:59.698Z,1007.33
2018-10-07T06:36:59.693Z,1007.37
2018-10-07T06:37:59.690Z,1007.42
2018-10-07T06:38:59.684Z,1007.42
2018-10-07T06:39:59.770Z,1007.48
2018-10-07T06:40:59.673Z,1007.51
2018-10-07T06:41:59.669Z,1007.54
2018-10-07T06:42:59.665Z,1007.58
2018-10-07T06:43:59.661Z,1007.61
2018-10-07T06:44:59.659Z,1007.65
2018-10-07T06:45:59.758Z,1007.63
2018-10-07T06:46:59.646Z,1007.63
2018-10-07T06:47:59.642Z,1007.68
2018-10-07T06:48:59.637Z,1007.68
2018-10-07T06:49:59.632Z,1007.70
2018-10-07T06:50:59.629Z,1007.70
2018-10-07T06:51:59.626Z,1007.74
2018-10-07T06:52:59.620Z,1007.81
2018-10-07T06:53:59.616Z,1007.84
2018-10-07T06:54:59.611Z,1007.89
2018-10-07T06:55:59.607Z,1007.93
2018-10-07T06:56:59.600Z,1007.97
2018-10-07T06:57:59.597Z,1007.92
2018-10-07T06:58:59.593Z,1007.98
2018-10-07T06:59:59.590Z,1008.05
2018-10-07T07:00:59.584Z,1008.08
2018-10-07T07:01:59.580Z,1008.10
2018-10-07T07:02:59.575Z,1008.14
2018-10-07T07:03:59.570Z,1008.11
2018-10-07T07:04:59.566Z,1008.11
2018-10-07T07:05:59.563Z,1008.10
2018-10-07T07:06:59.559Z,1008.07
2018-10-07T07:07:59.555Z,1008.06
2018-10-07T07:08:59.550Z,1008.05
2018-10-07T07:09:59.545Z,1008.04
2018-10-07T07:10:59.540Z,1008.02
2018-10-07T07:11:59.536Z,1008.02
2018-10-07T07:12:59.571Z,1008.00
2018-10-07T07:13:59.528Z,1007.99
2018-10-07T07:14:59.524Z,1008.05
2018-10-07T07:15:59.520Z,1008.06
2018-10-07T07:16:59.514Z,1008.05
2018-10-07T07:17:59.510Z,1008.04
2018-10-07T07:18:59.507Z,1008.00
2018-10-07T07:19:59.506Z,1008.05
2018-10-07T07:20:59.498Z,1008.01
2018-10-07T07:21:59.494Z,1008.03
2018-10-07T07:22:59.490Z,1008.03
2018-10-07T07:23:59.485Z,1008.06
2018-10-07T07:24:59.481Z,1008.11
2018-10-07T07:25:59.477Z,1008.07
2018-10-07T07:26:59.476Z,1008.11
2018-10-07T07:27:59.470Z,1008.11
2018-10-07T07:28:59.464Z,1008.15
2018-10-07T07:29:59.461Z,1008.16
2018-10-07T07:30:59.457Z,1008.16
2018-10-07T07:31:59.455Z,1008.20
2018-10-07T07:32:59.447Z,1008.22
2018-10-07T07:33:59.444Z,1008.21
2018-10-07T07:34:59.439Z,1008.23
2018-10-07T07:35:59.436Z,1008.27
2018-10-07T07:36:59.448Z,1008.29
2018-10-07T07:37:59.427Z,1008.32
2018-10-07T07:38:59.424Z,1008.32
2018-10-07T07:39:59.420Z,1008.30
2018-10-07T07:40:59.413Z,1008.31
2018-10-07T07:41:59.409Z,1008.36
2018-10-07T07:42:59.406Z,1008.37
2018-10-07T07:43:59.401Z,1008.33
2018-10-07T07:44:59.396Z,1008.37
2018-10-07T07:45:59.394Z,1008.39
2018-10-07T07:46:59.389Z,1008.38
2018-10-07T07:47:59.385Z,1008.45
2018-10-07T07:48:59.416Z,1008.45
2018-10-07T07:49:59.377Z,1008.41
2018-10-07T07:50:59.372Z,1008.48
2018-10-07T07:51:59.369Z,1008.49
2018-10-07T07:52:59.364Z,1008.48
2018-10-07T07:53:59.360Z,1008.49
2018-10-07T07:54:59.357Z,1008.49
2018-10-07T07:55:59.352Z,1008.52
2018-10-07T07:56:59.346Z,1008.57
2018-10-07T07:57:59.343Z,1008.58
2018-10-07T07:58:59.342Z,1008.66
2018-10-07T07:59:59.336Z,1008.70
2018-10-07T08:00:59.332Z,1008.74
2018-10-07T08:01:59.329Z,1008.71
2018-10-07T08:02:59.323Z,1008.73
2018-10-07T08:03:59.319Z,1008.80
2018-10-07T08:04:59.316Z,1008.81
2018-10-07T08:05:59.312Z,1008.86
2018-10-07T08:06:59.307Z,1008.91
2018-10-07T08:07:59.304Z,1008.94
2018-10-07T08:08:59.299Z,1009.03
2018-10-07T08:09:59.294Z,1009.00
2018-10-07T08:10:59.291Z,1009.04
2018-10-07T08:11:59.289Z,1009.03
2018-10-07T08:12:59.283Z,1009.09
2018-10-07T08:13:59.281Z,1009.05
2018-10-07T08:14:59.275Z,1009.09
2018-10-07T08:15:59.271Z,1009.09
2018-10-07T08:16:59.267Z,1009.09
2018-10-07T08:17:59.264Z,1009.17
2018-10-07T08:18:59.262Z,1009.15
2018-10-07T08:19:59.259Z,1009.20
2018-10-07T08:20:59.251Z,1009.24
2018-10-07T08:21:59.249Z,1009.19
2018-10-07T08:22:59.244Z,1009.21
2018-10-07T08:23:59.257Z,1009.24
2018-10-07T08:24:59.236Z,1009.26
2018-10-07T08:25:59.232Z,1009.17
2018-10-07T08:26:59.278Z,1009.22
2018-10-07T08:27:59.224Z,1009.25
2018-10-07T08:28:59.220Z,1009.28
2018-10-07T08:29:59.215Z,1009.33
2018-10-07T08:30:59.212Z,1009.34
2018-10-07T08:31:59.209Z,1009.37
2018-10-07T08:32:59.203Z,1009.33
2018-10-07T08:33:59.201Z,1009.37
2018-10-07T08:34:59.214Z,1009.42
2018-10-07T08:35:59.197Z,1009.39
2018-10-07T08:36:59.189Z,1009.45
2018-10-07T08:37:59.183Z,1009.42
2018-10-07T08:38:59.182Z,1009.39
2018-10-07T08:39:59.177Z,1009.39
2018-10-07T08:40:59.172Z,1009.43
2018-10-07T08:41:59.170Z,1009.42
2018-10-07T08:42:59.166Z,1009.46
2018-10-07T08:43:59.161Z,1009.51
2018-10-07T08:44:59.157Z,1009.53
2018-10-07T08:45:59.154Z,1009.55
2018-10-07T08:46:59.151Z,1009.51
2018-10-07T08:47:59.149Z,1009.45
2018-10-07T08:48:59.141Z,1009.49
2018-10-07T08:49:59.239Z,1009.52
2018-10-07T08:50:59.135Z,1009.45
2018-10-07T08:51:59.130Z,1009.42
2018-10-07T08:52:59.126Z,1009.43
2018-10-07T08:53:59.124Z,1009.41
2018-10-07T08:54:59.119Z,1009.46
2018-10-07T08:55:59.190Z,1009.52
2018-10-07T08:56:59.157Z,1009.51
2018-10-07T08:57:59.108Z,1009.49
2018-10-07T08:58:59.105Z,1009.50
2018-10-07T08:59:59.105Z,1009.52
2018-10-07T09:00:59.097Z,1009.53
2018-10-07T09:01:59.144Z,1009.51
2018-10-07T09:02:59.094Z,1009.52
2018-10-07T09:03:59.090Z,1009.53
2018-10-07T09:04:59.083Z,1009.59
2018-10-07T09:05:59.080Z,1009.58
2018-10-07T09:06:59.077Z,1009.65
2018-10-07T09:07:59.073Z,1009.64
2018-10-07T09:08:59.163Z,1009.63
2018-10-07T09:09:59.067Z,1009.68
2018-10-07T09:10:59.062Z,1009.92
2018-10-07T09:11:59.061Z,1010.28
2018-10-07T09:12:59.056Z,1010.45
2018-10-07T09:13:59.053Z,1010.59
2018-10-07T09:14:59.052Z,1010.56
2018-10-07T09:15:59.053Z,1010.62
2018-10-07T09:16:59.048Z,1010.64
2018-10-07T09:17:59.052Z,1010.66
2018-10-07T09:18:59.046Z,1010.69
2018-10-07T09:19:59.046Z,1010.67
2018-10-07T09:20:59.062Z,1010.73
2018-10-07T09:21:59.047Z,1010.74
2018-10-07T09:22:59.048Z,1010.69
2018-10-07T09:23:59.051Z,1010.71
2018-10-07T09:24:59.050Z,1010.70
2018-10-07T09:25:59.056Z,1010.72
2018-10-07T09:26:59.086Z,1010.77
2018-10-07T09:27:59.060Z,1010.77
2018-10-07T09:28:59.063Z,1010.81
2018-10-07T09:29:59.068Z,1010.86
2018-10-07T09:30:59.072Z,1010.84
2018-10-07T09:31:59.076Z,1010.88
2018-10-07T09:32:59.146Z,1010.93
2018-10-07T09:33:59.084Z,1011.03
2018-10-07T09:34:59.091Z,1010.95
2018-10-07T09:35:59.095Z,1010.90
2018-10-07T09:36:59.100Z,1010.89
2018-10-07T09:37:59.104Z,1011.04
2018-10-07T09:38:59.111Z,1010.97
2018-10-07T09:39:59.118Z,1011.04
2018-10-07T09:40:59.121Z,1011.05
2018-10-07T09:41:59.128Z,1011.08
2018-10-07T09:42:59.134Z,1011.02
2018-10-07T09:43:59.142Z,1011.07
2018-10-07T09:44:59.148Z,1011.08
2018-10-07T09:45:59.154Z,1011.08
2018-10-07T09:46:59.221Z,1011.14
2018-10-07T09:47:59.165Z,1011.14
2018-10-07T09:48:59.172Z,1011.21
2018-10-07T09:49:59.179Z,1011.24
2018-10-07T09:50:59.187Z,1011.21
2018-10-07T09:51:59.193Z,1011.23
2018-10-07T09:52:59.199Z,1011.25
2018-10-07T09:53:59.207Z,1011.29
2018-10-07T09:54:59.213Z,1011.25
2018-10-07T09:55:59.223Z,1011.26
2018-10-07T09:56:59.228Z,1011.32
2018-10-07T09:57:59.281Z,1011.29
2018-10-07T09:58:59.242Z,1011.30
2018-10-07T09:59:59.249Z,1011.33
2018-10-07T10:00:59.257Z,1011.34
2018-10-07T10:01:59.264Z,1011.28
2018-10-07T10:02:59.272Z,1011.32
2018-10-07T10:03:59.289Z,1011.19
2018-10-07T10:04:59.287Z,1011.33
2018-10-07T10:05:59.294Z,1011.38
2018-10-07T10:06:59.305Z,1011.35
2018-10-07T10:07:59.309Z,1011.34
2018-10-07T10:08:59.316Z,1011.30
2018-10-07T10:09:59.325Z,1011.32
2018-10-07T10:10:59.394Z,1011.31
2018-10-07T10:11:59.338Z,1011.28
2018-10-07T10:12:59.345Z,1011.29
2018-10-07T10:13:59.355Z,1011.28
2018-10-07T10:14:59.359Z,1011.32
2018-10-07T10:15:59.368Z,1011.35
2018-10-07T10:16:59.374Z,1011.35
2018-10-07T10:17:59.380Z,1011.32
2018-10-07T10:18:59.388Z,1011.37
2018-10-07T10:19:59.396Z,1011.35
2018-10-07T10:20:59.400Z,1011.29
2018-10-07T10:21:59.409Z,1010.79
2018-10-07T10:22:59.417Z,1010.69
2018-10-07T10:23:59.426Z,1010.48
2018-10-07T10:24:59.431Z,1010.44
2018-10-07T10:25:59.438Z,1010.43
2018-10-07T10:26:59.446Z,1010.62
2018-10-07T10:27:59.451Z,1010.44
2018-10-07T10:28:59.457Z,1010.47
2018-10-07T10:29:59.464Z,1010.45
2018-10-07T10:30:59.470Z,1010.51
2018-10-07T10:31:59.476Z,1010.44
2018-10-07T10:32:59.482Z,1010.42
2018-10-07T10:33:59.486Z,1010.44
2018-10-07T10:34:59.490Z,1010.40
2018-10-07T10:35:59.497Z,1010.59
2018-10-07T10:36:59.543Z,1010.54
2018-10-07T10:37:59.503Z,1010.59
2018-10-07T10:38:59.508Z,1010.57
2018-10-07T10:39:59.596Z,1010.56
2018-10-07T10:40:59.515Z,1010.62
2018-10-07T10:41:59.520Z,1010.55
2018-10-07T10:42:59.523Z,1010.54
2018-10-07T10:43:59.526Z,1010.58
2018-10-07T10:44:59.526Z,1010.47
2018-10-07T10:45:59.530Z,1010.43
2018-10-07T10:46:59.532Z,1010.46
2018-10-07T10:47:59.544Z,1010.47
2018-10-07T10:48:59.536Z,1010.47
2018-10-07T10:49:59.540Z,1010.48
2018-10-07T10:50:59.539Z,1010.46
2018-10-07T10:51:59.544Z,1010.48
2018-10-07T10:52:59.545Z,1010.59
2018-10-07T10:53:59.546Z,1010.64
2018-10-07T10:54:59.583Z,1010.51
2018-10-07T10:55:59.550Z,1010.48
2018-10-07T10:56:59.549Z,1010.83
2018-10-07T10:57:59.551Z,1010.70
2018-10-07T10:58:59.560Z,1010.85
2018-10-07T10:59:59.553Z,1010.70
2018-10-07T11:00:59.666Z,1010.60
2018-10-07T11:01:59.556Z,1010.65
2018-10-07T11:02:59.556Z,1010.69
2018-10-07T11:03:59.560Z,1010.74
2018-10-07T11:04:59.559Z,1010.74
2018-10-07T11:05:59.559Z,1010.78
2018-10-07T11:06:59.561Z,1010.64
2018-10-07T11:07:59.561Z,1010.72
2018-10-07T11:08:59.604Z,1010.68
2018-10-07T11:09:59.569Z,1010.61
2018-10-07T11:10:59.563Z,1010.70
2018-10-07T11:11:59.564Z,1010.56
2018-10-07T11:12:59.565Z,1010.51
2018-10-07T11:13:59.620Z,1010.50
2018-10-07T11:14:59.566Z,1010.54
2018-10-07T11:15:59.567Z,1010.66
2018-10-07T11:16:59.565Z,1010.61
2018-10-07T11:17:59.566Z,1010.58
2018-10-07T11:18:59.568Z,1010.53
2018-10-07T11:19:59.568Z,1010.54
2018-10-07T11:20:59.567Z,1010.48
2018-10-07T11:21:59.568Z,1010.46
2018-10-07T11:22:59.567Z,1010.46
2018-10-07T11:23:59.567Z,1010.44
2018-10-07T11:24:59.566Z,1010.51
2018-10-07T11:25:59.580Z,1010.54
2018-10-07T11:26:59.567Z,1010.49
2018-10-07T11:27:59.566Z,1010.48
2018-10-07T11:28:59.565Z,1010.44
2018-10-07T11:29:59.565Z,1010.46
2018-10-07T11:30:59.566Z,1010.43
2018-10-07T11:31:59.566Z,1010.44
2018-10-07T11:32:59.565Z,1010.45
2018-10-07T11:33:59.564Z,1010.38
2018-10-07T11:34:59.564Z,1010.43
2018-10-07T11:35:59.565Z,1010.44
2018-10-07T11:36:59.564Z,1010.43
2018-10-07T11:37:59.563Z,1010.38
2018-10-07T11:38:59.562Z,1010.36
2018-10-07T11:39:59.563Z,1010.40
2018-10-07T11:40:59.562Z,1010.53
2018-10-07T11:41:59.560Z,1010.37
2018-10-07T11:42:59.560Z,1010.38
2018-10-07T11:43:59.560Z,1010.32
2018-10-07T11:44:59.559Z,1010.28
2018-10-07T11:45:59.557Z,1010.27
2018-10-07T11:46:59.556Z,1010.16
2018-10-07T11:47:59.557Z,1010.21
2018-10-07T11:48:59.556Z,1010.21
2018-10-07T11:49:59.553Z,1010.19
2018-10-07T11:50:59.555Z,1010.15
2018-10-07T11:51:59.553Z,1010.15
2018-10-07T11:52:59.625Z,1010.09
2018-10-07T11:53:59.551Z,1010.09
2018-10-07T11:54:59.554Z,1010.11
2018-10-07T11:55:59.550Z,1010.04
2018-10-07T11:56:59.547Z,1010.09
2018-10-07T11:57:59.546Z,1010.19
2018-10-07T11:58:59.545Z,1010.13
2018-10-07T11:59:59.546Z,1010.23
2018-10-07T12:00:59.544Z,1010.16
2018-10-07T12:01:59.543Z,1010.21
2018-10-07T12:02:59.541Z,1010.19
2018-10-07T12:03:59.541Z,1010.16
2018-10-07T12:04:59.539Z,1010.19